dew point transmitter ge cost

Dew Point Meter Calibration Lab Services |

Dew Point Calibration Services for Meters and Sensors. In addition to humidity measurements, dew point meter calibration is vital to the processes for many clients in the gas, pharmaceutical, and manufacturing industries Transcat has added accredited Dew Point Calibration to our best in class scope of accreditation in our Rochester, NY

Rosemount 3051 Series Pressure Transmitter

Order and Configure the Rosemount 3051 Series Pressure Transmitter at Transcat. Factory Trained Rosemount Expert On Staff. Call or Get a Quote!

Afkortingen en Termen | LvnNL

Meteorological Aerodrome Report. EHGG 312125Z AUTO 25002KT 9999 NCD 08/07 Q1024. EHLW 312125Z AUTO VRB01KT 9999 NCD 10/09 Q1025 BLU

Everything You Need to Know About

2018-8-30All substances contain varying amounts of captive energy depending on the substance and how it exists that is, solid, liquid, or gas. The uniting of two substances to form other substances is called a “chemical reaction”. Combustion is a chemical reaction.

Afkortingen en Termen | LvnNL

Meteorological Aerodrome Report. EHGG 312125Z AUTO 25002KT 9999 NCD 08/07 Q1024. EHLW 312125Z AUTO VRB01KT 9999 NCD 10/09 Q1025 BLU

Control Engineering - News, tutorials,

News, tutorials, applications, and research on control, instrumentation and automation systems for electrical, mechanical and chemical engineers. Coverage includes discrete control, information control, process control, and system integration.

RCA - Wikipedia

2018-8-26The RCA Corporation was a major American electronics company, which was founded as the Radio Corporation of America in 1919. It was initially a wholly owned subsidiary of General Electric (GE) however, in 1932, GE was required to divest its control as part of the settlement of an antitrust suit.. At its height as an independent

Tundra Process Solutions Ltd. - ISA Alberta

ABB K-TEK - MagWave Dual Chamber Level System. The MagWave is a level measurement system which combines a highly visible magnetic level indication with an output from a Guided Wave Radar Transmitter.

Control Engineering - News, tutorials,

News, tutorials, applications, and research on control, instrumentation and automation systems for electrical, mechanical and chemical engineers. Coverage includes discrete control, information control, process control, and system integration.

Rosemount 3051 Series Pressure Transmitter

Order and Configure the Rosemount 3051 Series Pressure Transmitter at Transcat. Factory Trained Rosemount Expert On Staff. Call or Get a Quote!

Everything You Need to Know About

2018-8-30All substances contain varying amounts of captive energy depending on the substance and how it exists that is, solid, liquid, or gas. The uniting of two substances to form other substances is called a “chemical reaction”. Combustion is a chemical reaction.

Afkortingen en Termen | LvnNL

Meteorological Aerodrome Report. EHGG 312125Z AUTO 25002KT 9999 NCD 08/07 Q1024. EHLW 312125Z AUTO VRB01KT 9999 NCD 10/09 Q1025 BLU

[코릭스]

Korics is a company that dreams come true, and respects your thoughts.

Rosemount 3051 Series Pressure Transmitter

Order and Configure the Rosemount 3051 Series Pressure Transmitter at Transcat. Factory Trained Rosemount Expert On Staff. Call or Get a Quote!

[코릭스]

Korics is a company that dreams come true, and respects your thoughts.

RCA - Wikipedia

2018-8-26The RCA Corporation was a major American electronics company, which was founded as the Radio Corporation of America in 1919. It was initially a wholly owned subsidiary of General Electric (GE) however, in 1932, GE was required to divest its control as part of the settlement of an antitrust suit.. At its height as an independent

Tundra Process Solutions Ltd. - ISA Alberta

ABB K-TEK - MagWave Dual Chamber Level System. The MagWave is a level measurement system which combines a highly visible magnetic level indication with an output from a Guided Wave Radar Transmitter.

Welcome To Combined Cycle Journal

The oldest engines in the GE 7E fleet served by the 7EA Users Group are approaching a half-century of service. This fleet incorporates gas-turbine models MS7001A, B, C, E, and EA, numbering 1168 units at 216 plants worldwide in mid-2017.

Everything You Need to Know About

2018-8-30All substances contain varying amounts of captive energy depending on the substance and how it exists that is, solid, liquid, or gas. The uniting of two substances to form other substances is called a “chemical reaction”. Combustion is a chemical reaction.

: Digital Barometer Weather

: Digital Barometer Weather Station Clock with Indoor Thermometer Hygrometer and Wireless Outdoor Temperature Humidity Transmitter Dual Alarm Clock with Snooze Calendar (1 transmitters included) : Garden Outdoor

Welcome To Combined Cycle Journal

The oldest engines in the GE 7E fleet served by the 7EA Users Group are approaching a half-century of service. This fleet incorporates gas-turbine models MS7001A, B, C, E, and EA, numbering 1168 units at 216 plants worldwide in mid-2017.

RCA - Wikipedia

2018-8-26The RCA Corporation was a major American electronics company, which was founded as the Radio Corporation of America in 1919. It was initially a wholly owned subsidiary of General Electric (GE) however, in 1932, GE was required to divest its control as part of the settlement of an antitrust suit.. At its height as an independent

Control Engineering - News, tutorials,

News, tutorials, applications, and research on control, instrumentation and automation systems for electrical, mechanical and chemical engineers. Coverage includes discrete control, information control, process control, and system integration.

Dew Point Meter Calibration Lab Services |

Dew Point Calibration Services for Meters and Sensors. In addition to humidity measurements, dew point meter calibration is vital to the processes for many clients in the gas, pharmaceutical, and manufacturing industries Transcat has added accredited Dew Point Calibration to our best in class scope of accreditation in our Rochester, NY

Welcome To Combined Cycle Journal

The oldest engines in the GE 7E fleet served by the 7EA Users Group are approaching a half-century of service. This fleet incorporates gas-turbine models MS7001A, B, C, E, and EA, numbering 1168 units at 216 plants worldwide in mid-2017.

[코릭스]

Korics is a company that dreams come true, and respects your thoughts.

: Digital Barometer Weather

: Digital Barometer Weather Station Clock with Indoor Thermometer Hygrometer and Wireless Outdoor Temperature Humidity Transmitter Dual Alarm Clock with Snooze Calendar (1 transmitters included) : Garden Outdoor

Dew Point Meter Calibration Lab Services |

Dew Point Calibration Services for Meters and Sensors. In addition to humidity measurements, dew point meter calibration is vital to the processes for many clients in the gas, pharmaceutical, and manufacturing industries Transcat has added accredited Dew Point Calibration to our best in class scope of accreditation in our Rochester, NY

: Digital Barometer Weather

: Digital Barometer Weather Station Clock with Indoor Thermometer Hygrometer and Wireless Outdoor Temperature Humidity Transmitter Dual Alarm Clock with Snooze Calendar (1 transmitters included) : Garden Outdoor

Tundra Process Solutions Ltd. - ISA Alberta

ABB K-TEK - MagWave Dual Chamber Level System. The MagWave is a level measurement system which combines a highly visible magnetic level indication with an output from a Guided Wave Radar Transmitter.